Time;durP1;ratioP1;P1;durP2;ratioP2;P2;SDS_P1;SDS_P2;PMS_P1;PMS_P2;Temp;Humidity;BMP_temperature;BMP_pressure;BME280_temperature;BME280_humidity;BME280_pressure;Samples;Min_cycle;Max_cycle;Signal;HPM_P1;HPM_P2
2021/12/20 00:00:59;;;;;;;2.20;1.00;;;;;;;0.35;100.00;97566.16;5153169;27;20051;-60
2021/12/20 00:03:27;;;;;;;0.93;0.93;;;;;;;0.35;100.00;97572.34;5153106;27;20047;-60
2021/12/20 00:05:53;;;;;;;1.10;1.00;;;;;;;0.38;100.00;97571.66;5152732;27;20050;-61
2021/12/20 00:08:19;;;;;;;3.05;1.13;;;;;;;0.39;100.00;97588.63;5152812;27;20167;-60
2021/12/20 00:10:46;;;;;;;1.63;1.00;;;;;;;0.44;100.00;97581.09;5152739;27;20149;-61
2021/12/20 00:13:13;;;;;;;2.25;1.00;;;;;;;0.53;100.00;97574.81;5153167;27;20053;-60
2021/12/20 00:15:39;;;;;;;1.88;1.33;;;;;;;0.60;100.00;97580.41;5152332;27;20063;-60
2021/12/20 00:18:05;;;;;;;1.92;1.13;;;;;;;0.56;100.00;97588.41;5152681;27;20051;-60
2021/12/20 00:20:31;;;;;;;1.98;1.17;;;;;;;0.56;100.00;97593.00;5152522;27;20083;-60
2021/12/20 00:22:58;;;;;;;1.77;1.30;;;;;;;0.49;100.00;97600.88;5152605;27;20137;-60
2021/12/20 00:25:24;;;;;;;1.88;1.00;;;;;;;0.44;100.00;97605.38;5152658;27;20061;-60
2021/12/20 00:27:51;;;;;;;2.22;1.23;;;;;;;0.46;100.00;97611.19;5152400;27;20050;-60
2021/12/20 00:30:17;;;;;;;1.65;0.90;;;;;;;0.45;100.00;97603.47;5152802;27;20050;-60
2021/12/20 00:32:44;;;;;;;3.47;1.35;;;;;;;0.51;100.00;97604.03;5152541;27;20055;-61
2021/12/20 00:35:12;;;;;;;1.95;0.88;;;;;;;0.43;100.00;97579.53;5152407;27;20054;-60
2021/12/20 00:40:23;;;;;;;4.05;1.25;;;;;;;0.36;100.00;97530.78;5152858;27;20053;-60
2021/12/20 00:42:51;;;;;;;0.82;0.82;;;;;;;0.39;100.00;97513.13;5152378;27;20149;-61
2021/12/20 00:45:19;;;;;;;0.90;0.90;;;;;;;0.38;100.00;97506.97;5151937;27;20061;-60
2021/12/20 00:47:46;;;;;;;1.33;1.10;;;;;;;0.34;100.00;97497.22;5152122;27;20053;-60
2021/12/20 00:50:14;;;;;;;1.15;1.00;;;;;;;0.26;100.00;97498.88;5152301;27;20527;-60
2021/12/20 00:52:40;;;;;;;1.77;1.00;;;;;;;0.19;100.00;97490.56;5152172;27;20046;-60
2021/12/20 00:55:07;;;;;;;1.92;0.90;;;;;;;0.11;100.00;97486.88;5152099;27;20050;-60
2021/12/20 00:57:34;;;;;;;1.23;0.98;;;;;;;0.14;100.00;97496.97;5152167;27;20050;-60
2021/12/20 01:00:01;;;;;;;2.75;0.88;;;;;;;0.08;100.00;97489.47;5151882;27;20057;-60
2021/12/20 01:02:27;;;;;;;0.85;0.80;;;;;;;0.14;100.00;97501.59;5152051;27;20053;-60
2021/12/20 01:04:54;;;;;;;2.13;0.90;;;;;;;0.18;100.00;97497.88;5151860;27;20050;-60
2021/12/20 01:07:20;;;;;;;3.22;0.90;;;;;;;0.23;100.00;97499.56;5152363;27;20046;-60
2021/12/20 01:09:46;;;;;;;1.38;1.00;;;;;;;0.17;100.00;97504.41;5151759;27;20057;-60
2021/12/20 01:12:17;;;;;;;1.98;0.93;;;;;;;0.19;100.00;97520.22;5151829;27;20146;-60
2021/12/20 01:14:44;;;;;;;0.80;0.80;;;;;;;0.06;100.00;97522.13;5151369;27;20263;-60
2021/12/20 01:17:11;;;;;;;1.00;0.90;;;;;;;0.07;100.00;97522.91;5151742;27;20050;-60
2021/12/20 01:19:38;;;;;;;1.38;0.80;;;;;;;0.10;100.00;97527.63;5151857;27;20050;-60
2021/12/20 01:22:06;;;;;;;0.90;0.82;;;;;;;0.09;100.00;97536.81;5151532;27;20141;-60
2021/12/20 01:24:33;;;;;;;0.73;0.73;;;;;;;0.13;100.00;97545.81;5151890;27;20133;-60
2021/12/20 01:26:59;;;;;;;2.75;1.10;;;;;;;0.13;100.00;97535.03;5151474;27;20046;-60
2021/12/20 01:29:25;;;;;;;4.32;0.90;;;;;;;0.04;100.00;97534.38;5151688;27;20501;-60
2021/12/20 01:31:51;;;;;;;1.80;1.27;;;;;;;0.09;100.00;97532.22;5151369;27;20042;-60
2021/12/20 01:34:19;;;;;;;1.05;0.88;;;;;;;0.14;100.00;97532.00;5151461;27;20051;-60
2021/12/20 01:36:45;;;;;;;2.95;0.80;;;;;;;0.15;100.00;97536.28;5151681;27;20459;-60
2021/12/20 01:39:11;;;;;;;1.92;0.90;;;;;;;0.14;100.00;97536.63;5151453;27;20110;-60
2021/12/20 01:41:40;;;;;;;1.15;0.88;;;;;;;0.18;100.00;97534.81;5151470;27;20046;-60
2021/12/20 01:44:06;;;;;;;0.98;0.88;;;;;;;0.01;100.00;97545.81;5151250;27;20057;-60
2021/12/20 01:46:33;;;;;;;1.13;0.90;;;;;;;0.04;100.00;97550.53;5151618;27;20046;-60
2021/12/20 01:49:00;;;;;;;0.90;0.90;;;;;;;0.04;100.00;97550.53;5151138;27;20113;-60
2021/12/20 01:51:45;;;;;;;0.70;0.70;;;;;;;0.07;100.00;97547.97;5151558;27;20129;-60
2021/12/20 01:54:11;;;;;;;;;;;;;;;0.15;100.00;97546.28;5151768;27;20046;-60
2021/12/20 01:56:40;;;;;;;1.40;1.10;;;;;;;0.19;100.00;97544.47;5153041;27;19945;-60
2021/12/20 01:59:08;;;;;;;0.90;0.90;;;;;;;0.23;100.00;97543.47;5154795;27;20047;-60
2021/12/20 02:01:35;;;;;;;0.80;0.80;;;;;;;0.24;100.00;97538.88;5154907;27;20497;-60
2021/12/20 02:04:07;;;;;;;1.65;1.55;;;;;;;0.28;100.00;97536.28;5155022;27;20102;-60
2021/12/20 02:06:36;;;;;;;2.58;0.90;;;;;;;0.18;100.00;97529.44;5154909;27;20497;-60
2021/12/20 02:09:06;;;;;;;2.20;0.80;;;;;;;0.19;100.00;97525.59;5155199;27;20477;-60
2021/12/20 02:11:34;;;;;;;1.33;0.70;;;;;;;0.19;100.00;97512.13;5154674;27;20134;-60
2021/12/20 02:14:01;;;;;;;2.25;0.98;;;;;;;0.25;100.00;97499.22;5154910;27;20049;-60
2021/12/20 02:16:27;;;;;;;1.63;0.95;;;;;;;0.24;100.00;97506.53;5154177;27;20497;-60
2021/12/20 02:18:53;;;;;;;1.83;1.00;;;;;;;0.24;100.00;97493.06;5154818;27;20058;-60
2021/12/20 02:21:21;;;;;;;3.13;1.23;;;;;;;0.20;100.00;97490.25;5154514;27;20561;-60
2021/12/20 02:23:48;;;;;;;2.17;1.38;;;;;;;0.18;100.00;97487.09;5154648;27;20046;-60
2021/12/20 02:26:18;;;;;;;3.80;1.30;;;;;;;0.22;100.00;97485.28;5154310;27;20071;-60
2021/12/20 02:28:47;;;;;;;2.38;1.55;;;;;;;0.13;100.00;97481.13;5155119;27;20610;-60
2021/12/20 02:39:46;;;;;;;1.42;1.25;;;;;;;-0.28;100.00;97501.75;5105019;27;20047;-60
2021/12/20 02:42:17;;;;;;;2.80;1.05;;;;;;;-0.35;100.00;97504.22;5154437;27;20619;-61
2021/12/20 02:45:00;;;;;;;1.95;1.52;;;;;;;-0.29;100.00;97502.88;5154349;27;20096;-60
2021/12/20 02:47:28;;;;;;;2.88;1.00;;;;;;;-0.31;100.00;97505.13;5154218;27;20053;-60
2021/12/20 02:49:55;;;;;;;2.13;1.08;;;;;;;-0.31;100.00;97513.19;5154239;27;20192;-60
2021/12/20 02:52:22;;;;;;;1.05;1.00;;;;;;;-0.28;100.00;97507.94;5154090;27;20049;-60
2021/12/20 02:54:49;;;;;;;2.17;1.55;;;;;;;-0.19;100.00;97524.00;5154072;27;20149;-60
2021/12/20 02:57:15;;;;;;;0.85;0.85;;;;;;;-0.13;100.00;97513.81;5153982;27;20175;-60
2021/12/20 02:59:41;;;;;;;1.63;1.20;;;;;;;-0.06;100.00;97525.59;5153987;27;20054;-60
2021/12/20 03:02:10;;;;;;;1.58;1.02;;;;;;;-0.01;100.00;97521.88;5153926;27;20047;-60
2021/12/20 03:04:36;;;;;;;6.53;1.75;;;;;;;-0.01;100.00;97532.66;5154092;27;20080;-60
2021/12/20 03:07:06;;;;;;;3.42;1.35;;;;;;;-0.02;100.00;97539.97;5153580;27;20102;-60
2021/12/20 03:09:37;;;;;;;2.92;1.23;;;;;;;-0.08;100.00;97549.38;5153697;27;20047;-60
2021/12/20 03:12:05;;;;;;;4.57;1.10;;;;;;;-0.11;100.00;97549.25;5154001;27;20442;-60
2021/12/20 03:14:36;;;;;;;0.90;0.90;;;;;;;-0.15;100.00;97561.81;5153708;27;20057;-60
2021/12/20 03:17:04;;;;;;;1.23;1.08;;;;;;;-0.08;100.00;97564.75;5154098;27;20047;-60
2021/12/20 03:19:31;;;;;;;2.40;1.10;;;;;;;-0.11;100.00;97578.88;5153776;27;20429;-60
2021/12/20 03:21:58;;;;;;;0.90;0.90;;;;;;;-0.05;100.00;97591.03;5153977;27;20352;-60
2021/12/20 03:24:24;;;;;;;1.55;1.00;;;;;;;-0.02;100.00;97601.94;5153859;27;20059;-61
2021/12/20 03:26:52;;;;;;;1.02;0.93;;;;;;;0.00;100.00;97628.56;5154234;27;20042;-60
2021/12/20 03:29:18;;;;;;;1.45;0.70;;;;;;;-0.33;100.00;97640.09;5153887;27;20055;-60
2021/12/20 03:31:45;;;;;;;1.58;0.80;;;;;;;-0.43;100.00;97624.34;5153835;27;20371;-60
2021/12/20 03:34:12;;;;;;;0.60;0.60;;;;;;;-0.47;100.00;97623.41;5153984;27;20047;-60
2021/12/20 03:36:38;;;;;;;0.75;0.75;;;;;;;-0.43;100.00;97615.47;5153537;27;20042;-60
2021/12/20 03:39:07;;;;;;;0.63;0.63;;;;;;;-0.57;100.00;97615.75;5153804;27;20047;-60
2021/12/20 03:41:34;;;;;;;0.80;0.80;;;;;;;-0.62;100.00;97614.06;5153369;27;20069;-60
2021/12/20 03:44:01;;;;;;;0.80;0.80;;;;;;;-0.74;100.00;97628.22;5153688;27;20062;-60
2021/12/20 03:46:28;;;;;;;0.65;0.65;;;;;;;-0.71;100.00;97648.31;5153379;27;20070;-60
2021/12/20 03:48:54;;;;;;;1.20;0.63;;;;;;;-1.01;100.00;97672.56;5153526;27;20129;-60
2021/12/20 03:51:20;;;;;;;1.70;0.95;;;;;;;-1.06;100.00;97696.97;5153432;27;20049;-60
2021/12/20 03:53:47;;;;;;;2.42;0.80;;;;;;;-0.91;100.00;97690.22;5153023;27;20050;-60
2021/12/20 03:56:13;;;;;;;1.42;0.88;;;;;;;-0.82;100.00;97709.00;5153403;27;20884;-60
2021/12/20 03:58:39;;;;;;;0.70;0.70;;;;;;;-0.86;100.00;97741.16;5153021;27;20049;-59
2021/12/20 04:01:08;;;;;;;2.53;1.15;;;;;;;-0.84;100.00;97757.75;5153321;27;20046;-60
2021/12/20 04:03:35;;;;;;;0.63;0.60;;;;;;;-0.74;100.00;97770.06;5153073;27;20051;-60
2021/12/20 04:06:03;;;;;;;0.77;0.55;;;;;;;-0.87;100.00;97793.38;5153254;27;20047;-60
2021/12/20 04:08:29;;;;;;;1.58;0.75;;;;;;;-1.00;100.00;97803.25;5152812;27;20047;-60
2021/12/20 04:10:55;;;;;;;1.02;0.77;;;;;;;-0.98;100.00;97819.06;5153141;27;20047;-60
2021/12/20 04:13:21;;;;;;;0.70;0.70;;;;;;;-0.87;100.00;97817.59;5152667;27;20049;-60
2021/12/20 04:15:48;;;;;;;3.92;0.80;;;;;;;-0.88;100.00;97824.09;5152539;27;20047;-60
2021/12/20 04:18:15;;;;;;;0.63;0.63;;;;;;;-1.04;100.00;97844.56;5152106;27;20065;-60
2021/12/20 04:20:41;;;;;;;1.95;0.90;;;;;;;-1.24;100.00;97870.22;5152450;27;20095;-60
2021/12/20 04:23:07;;;;;;;1.27;0.82;;;;;;;-1.36;100.00;97881.63;5152609;27;20046;-60
2021/12/20 04:25:34;;;;;;;0.60;0.60;;;;;;;-1.40;100.00;97901.41;5152434;27;20050;-60
2021/12/20 04:28:00;;;;;;;3.08;0.80;;;;;;;-1.40;100.00;97909.47;5152638;27;20050;-60
2021/12/20 04:30:29;;;;;;;0.75;0.73;;;;;;;-1.42;100.00;97923.22;5152584;27;20047;-60
2021/12/20 04:32:55;;;;;;;0.70;0.70;;;;;;;-1.34;100.00;97924.31;5152985;27;20390;-60
2021/12/20 04:35:22;;;;;;;1.00;0.88;;;;;;;-1.30;100.00;97941.41;5152225;27;20523;-61
2021/12/20 04:37:50;;;;;;;1.33;0.90;;;;;;;-1.39;100.00;97948.69;5152531;27;20054;-60
2021/12/20 04:40:19;;;;;;;1.25;0.95;;;;;;;-1.42;100.00;97944.75;5152202;27;20095;-60
2021/12/20 04:42:46;;;;;;;1.67;1.10;;;;;;;-1.48;100.00;97956.75;5152250;27;20058;-60
2021/12/20 04:45:12;;;;;;;0.70;0.70;;;;;;;-1.42;100.00;97958.19;5152224;27;20531;-60
2021/12/20 04:47:38;;;;;;;4.65;1.15;;;;;;;-1.47;100.00;97951.03;5152143;27;20406;-60
2021/12/20 04:50:06;;;;;;;3.20;1.17;;;;;;;-1.43;100.00;97956.59;5151954;27;20145;-60
2021/12/20 04:52:33;;;;;;;5.15;1.25;;;;;;;-1.46;100.00;97951.84;5151991;27;20576;-60
2021/12/20 04:55:00;;;;;;;2.65;1.08;;;;;;;-1.56;100.00;97957.53;5152142;27;20141;-60
2021/12/20 04:57:26;;;;;;;1.42;0.80;;;;;;;-1.61;100.00;97960.38;5151956;27;20053;-60
2021/12/20 04:59:53;;;;;;;2.00;1.02;;;;;;;-1.59;100.00;97961.63;5152197;27;20050;-63
2021/12/20 05:02:19;;;;;;;1.15;0.88;;;;;;;-1.56;100.00;97966.38;5151604;27;20053;-60
2021/12/20 05:04:45;;;;;;;1.15;1.00;;;;;;;-1.59;100.00;97960.84;5151913;27;20047;-61
2021/12/20 05:07:11;;;;;;;6.13;1.20;;;;;;;-1.58;100.00;97971.28;5151575;27;20106;-60
2021/12/20 05:09:40;;;;;;;3.88;1.33;;;;;;;-1.62;100.00;97962.25;5151935;27;20141;-60
2021/12/20 05:12:11;;;;;;;1.13;0.98;;;;;;;-1.61;100.00;97971.13;5151622;27;20523;-60
2021/12/20 05:14:40;;;;;;;1.88;1.13;;;;;;;-1.58;100.00;97973.97;5151575;27;20572;-60
2021/12/20 05:17:07;;;;;;;1.20;1.05;;;;;;;-1.54;100.00;97974.13;5151652;27;20081;-60
2021/12/20 05:19:33;;;;;;;1.25;1.10;;;;;;;-1.55;100.00;97983.31;5149695;27;20093;-60
2021/12/20 05:22:00;;;;;;;3.95;0.90;;;;;;;-1.60;100.00;97973.50;5113262;28;20363;-60
2021/12/20 05:24:26;;;;;;;0.88;0.88;;;;;;;-1.75;100.00;97960.50;5130585;28;20057;-60
2021/12/20 05:26:53;;;;;;;3.70;1.20;;;;;;;-1.73;100.00;97959.09;5130958;28;20051;-61
2021/12/20 05:29:20;;;;;;;0.80;0.80;;;;;;;-1.66;100.00;97962.09;5130588;27;20057;-61
2021/12/20 05:31:46;;;;;;;2.10;0.70;;;;;;;-1.58;100.00;97973.19;5130543;27;20083;-61
2021/12/20 05:34:12;;;;;;;2.53;0.90;;;;;;;-1.54;100.00;97968.75;5130770;28;20671;-60
2021/12/20 05:36:38;;;;;;;3.90;1.20;;;;;;;-1.49;100.00;97963.22;5130653;28;20047;-61
2021/12/20 05:39:05;;;;;;;2.30;1.10;;;;;;;-1.45;100.00;97969.56;5130634;28;20542;-59
2021/12/20 05:41:31;;;;;;;1.45;1.02;;;;;;;-1.33;100.00;97979.66;5130552;28;20149;-59
2021/12/20 05:43:58;;;;;;;1.70;1.20;;;;;;;-1.30;100.00;97968.28;5130388;28;20047;-59
2021/12/20 05:46:24;;;;;;;3.88;1.30;;;;;;;-1.27;100.00;97965.75;5130744;28;20497;-59
2021/12/20 05:48:51;;;;;;;4.30;1.35;;;;;;;-1.29;100.00;97940.31;5130712;28;20047;-59
2021/12/20 05:51:17;;;;;;;2.70;1.05;;;;;;;-1.39;100.00;97921.81;5130585;28;20055;-59
2021/12/20 05:53:43;;;;;;;3.28;1.10;;;;;;;-1.26;100.00;97947.75;5130615;28;20047;-59
2021/12/20 05:56:10;;;;;;;2.95;1.42;;;;;;;-1.33;100.00;97934.78;5130678;28;20181;-59
2021/12/20 05:58:36;;;;;;;1.83;1.13;;;;;;;-1.37;100.00;97939.19;5130204;28;20461;-58
2021/12/20 06:01:04;;;;;;;1.33;0.90;;;;;;;-1.38;100.00;97955.66;5130283;28;20486;-63
2021/12/20 06:03:30;;;;;;;4.50;2.03;;;;;;;-1.57;100.00;97937.91;5130338;28;20055;-64
2021/12/20 06:05:56;;;;;;;6.43;1.95;;;;;;;-1.60;100.00;97948.50;5130230;28;20537;-64
2021/12/20 06:08:22;;;;;;;8.60;2.00;;;;;;;-1.48;100.00;97965.59;5129973;28;20085;-64
2021/12/20 06:10:49;;;;;;;7.53;2.72;;;;;;;-1.54;100.00;97958.78;5129881;28;20433;-64
2021/12/20 06:13:15;;;;;;;3.22;1.85;;;;;;;-1.47;100.00;97977.13;5130052;28;20055;-66
2021/12/20 06:15:41;;;;;;;7.47;2.95;;;;;;;-1.23;100.00;98003.59;5130229;28;20451;-63
2021/12/20 06:18:08;;;;;;;6.75;2.53;;;;;;;-1.32;100.00;97998.19;5130193;28;20134;-61
2021/12/20 06:20:35;;;;;;;3.58;1.90;;;;;;;-1.44;100.00;97968.44;5130165;28;20433;-63
2021/12/20 06:23:01;;;;;;;2.40;1.65;;;;;;;-1.56;100.00;97946.78;5129365;28;20043;-63
2021/12/20 06:25:28;;;;;;;1.40;1.30;;;;;;;-1.45;100.00;97964.19;5118226;28;20138;-62
2021/12/20 06:27:55;;;;;;;1.60;1.50;;;;;;;-1.63;100.00;97939.19;5109260;27;20051;-60
2021/12/20 06:30:21;;;;;;;2.65;1.70;;;;;;;-1.55;100.00;97951.84;5125697;28;20051;-63
2021/12/20 06:32:47;;;;;;;4.13;2.20;;;;;;;-1.54;100.00;97950.72;5126791;28;20047;-63
2021/12/20 06:35:14;;;;;;;2.42;1.80;;;;;;;-1.39;100.00;97983.66;5129265;28;20506;-64
2021/12/20 06:37:43;;;;;;;3.50;1.88;;;;;;;-1.44;100.00;97963.84;5129673;28;20142;-65
2021/12/20 06:40:10;;;;;;;2.63;1.88;;;;;;;-1.42;100.00;97937.47;5129490;28;20059;-60
2021/12/20 06:42:38;;;;;;;3.90;2.10;;;;;;;-1.36;100.00;97956.91;5131640;27;20051;-60
2021/12/20 06:45:05;;;;;;;2.88;1.80;;;;;;;-1.53;100.00;97941.56;5133104;28;20055;-56
2021/12/20 06:47:33;;;;;;;3.40;2.08;;;;;;;-1.44;100.00;97953.09;5132954;28;20059;-66
2021/12/20 06:49:59;;;;;;;7.45;2.25;;;;;;;-1.32;100.00;97957.88;5133218;28;20162;-64
2021/12/20 06:52:27;;;;;;;3.60;1.77;;;;;;;-1.29;100.00;97949.16;5133066;28;20047;-68
2021/12/20 06:54:53;;;;;;;1.83;1.65;;;;;;;-1.15;100.00;97954.38;5133096;28;20066;-68
2021/12/20 06:57:20;;;;;;;3.97;2.17;;;;;;;-1.31;100.00;97918.31;5132974;28;20051;-61
2021/12/20 06:59:47;;;;;;;3.85;1.90;;;;;;;-1.29;100.00;97932.25;5132977;28;20047;-59
2021/12/20 07:02:14;;;;;;;5.65;2.60;;;;;;;-1.24;100.00;97991.22;5132883;28;20051;-60
2021/12/20 07:04:41;;;;;;;5.88;2.28;;;;;;;-1.45;100.00;97953.44;5133025;28;20047;-61
2021/12/20 07:07:07;;;;;;;4.72;2.10;;;;;;;-1.48;100.00;97979.03;5132745;28;20442;-68
2021/12/20 07:09:34;;;;;;;4.47;2.08;;;;;;;-1.39;100.00;98045.47;5132435;28;20538;-66
2021/12/20 07:12:02;;;;;;;5.60;2.35;;;;;;;-1.44;100.00;98067.91;5132695;28;20576;-63
2021/12/20 07:14:29;;;;;;;4.88;2.28;;;;;;;-1.38;100.00;98098.13;5132538;27;20051;-64
2021/12/20 07:16:57;;;;;;;4.28;2.28;;;;;;;-1.50;100.00;98126.41;5132266;28;20134;-71
2021/12/20 07:19:24;;;;;;;5.18;2.08;;;;;;;-1.40;100.00;98149.50;5129822;28;20059;-67
2021/12/20 07:21:50;;;;;;;5.10;1.67;;;;;;;-1.43;100.00;98159.00;5114702;28;21460;-64
2021/12/20 07:24:16;;;;;;;1.77;1.35;;;;;;;-1.53;100.00;98134.31;5132108;28;20521;-67
2021/12/20 07:26:44;;;;;;;2.70;1.45;;;;;;;-1.55;100.00;98136.50;5132619;28;20048;-61
2021/12/20 07:29:11;;;;;;;3.90;1.00;;;;;;;-1.45;100.00;98139.69;5132453;28;20094;-61
2021/12/20 07:31:37;;;;;;;1.77;1.30;;;;;;;-1.33;100.00;98087.22;5132474;28;20137;-63
2021/12/20 07:34:07;;;;;;;2.40;1.17;;;;;;;-1.39;100.00;98040.09;5132806;28;20050;-61
2021/12/20 07:36:33;;;;;;;2.15;1.52;;;;;;;-1.34;100.00;97978.88;5132334;28;20047;-61
2021/12/20 07:39:00;;;;;;;1.80;1.25;;;;;;;-1.41;100.00;97908.66;5129398;28;20154;-63
2021/12/20 07:41:26;;;;;;;1.27;0.90;;;;;;;-1.48;100.00;97800.84;5132472;28;20497;-63
2021/12/20 07:43:53;;;;;;;2.55;1.25;;;;;;;-1.58;100.00;97704.44;5132091;28;20047;-64
2021/12/20 07:46:20;;;;;;;0.88;0.85;;;;;;;-1.69;100.00;97639.50;5131962;28;20516;-60
2021/12/20 07:48:47;;;;;;;2.70;0.90;;;;;;;-2.00;100.00;97538.50;5132012;28;20106;-64
2021/12/20 07:51:13;;;;;;;0.80;0.80;;;;;;;-2.09;100.00;97543.09;5132295;28;20051;-62
2021/12/20 07:53:39;;;;;;;3.67;0.98;;;;;;;-2.13;100.00;97539.50;5131006;27;20051;-62
2021/12/20 07:56:06;;;;;;;1.38;1.02;;;;;;;-2.11;100.00;97596.31;5132182;28;20043;-63
2021/12/20 07:58:32;;;;;;;3.03;1.23;;;;;;;-1.96;100.00;97689.81;5132349;28;20061;-63
2021/12/20 08:01:01;;;;;;;2.85;0.88;;;;;;;-2.13;100.00;97660.31;5132369;28;20500;-62
2021/12/20 08:03:27;;;;;;;0.95;0.93;;;;;;;-2.10;100.00;97656.97;5128049;28;20054;-67
2021/12/20 08:05:54;;;;;;;0.90;0.90;;;;;;;-2.11;100.00;97665.34;5135862;27;20063;-67
2021/12/20 08:08:21;;;;;;;0.88;0.85;;;;;;;-2.04;100.00;97752.38;5152892;27;20051;-68
2021/12/20 08:10:47;;;;;;;1.95;1.75;;;;;;;-2.26;100.00;97715.75;5152651;27;20050;-70
2021/12/20 08:13:15;;;;;;;2.53;1.13;;;;;;;-2.25;100.00;97744.16;5152705;27;20050;-58
2021/12/20 08:15:42;;;;;;;2.20;1.13;;;;;;;-1.88;100.00;97816.38;5151858;27;20142;-61
2021/12/20 08:18:09;;;;;;;1.83;1.10;;;;;;;-1.98;100.00;97777.97;5152767;27;20074;-65
2021/12/20 08:20:36;;;;;;;2.22;1.33;;;;;;;-2.09;100.00;97787.44;5152419;27;20133;-63
2021/12/20 08:23:03;;;;;;;2.15;1.10;;;;;;;-1.92;100.00;97806.25;5152477;27;20042;-64
2021/12/20 08:25:30;;;;;;;1.65;1.17;;;;;;;-2.03;100.00;97809.56;5152078;27;20054;-67
2021/12/20 08:27:56;;;;;;;1.95;1.10;;;;;;;-2.06;100.00;97835.16;5151792;27;20085;-69
2021/12/20 08:30:23;;;;;;;1.35;1.25;;;;;;;-2.04;100.00;97843.69;5151419;27;20054;-69
2021/12/20 08:32:49;;;;;;;2.83;1.38;;;;;;;-2.10;100.00;97860.25;5151739;27;20046;-61
2021/12/20 08:35:17;;;;;;;1.17;1.10;;;;;;;-2.09;100.00;97915.56;5152073;27;20493;-64
2021/12/20 08:37:44;;;;;;;3.22;1.45;;;;;;;-1.96;100.00;97968.38;5150444;27;20129;-66
2021/12/20 08:40:13;;;;;;;1.40;0.90;;;;;;;-2.33;100.00;97894.47;5152282;27;20047;-62
2021/12/20 08:42:41;;;;;;;0.75;0.75;;;;;;;-2.27;100.00;97903.97;5151893;27;20102;-66
2021/12/20 08:45:09;;;;;;;1.55;1.27;;;;;;;-2.23;100.00;97907.59;5152291;27;20054;-63
2021/12/20 08:47:35;;;;;;;2.17;1.50;;;;;;;-1.56;100.00;98047.03;5152135;27;20102;-63
2021/12/20 08:50:03;;;;;;;1.20;1.10;;;;;;;-0.85;100.00;98078.28;5152105;27;20055;-62
2021/12/20 08:52:30;;;;;;;2.65;1.48;;;;;;;-1.33;100.00;97834.50;5151623;27;20046;-61
2021/12/20 08:54:57;;;;;;;1.02;1.02;;;;;;;-1.71;100.00;97663.22;5152058;27;20115;-61
2021/12/20 08:57:23;;;;;;;2.00;1.33;;;;;;;-1.87;100.00;97616.47;5150831;27;20137;-60
2021/12/20 08:59:50;;;;;;;1.40;1.13;;;;;;;-2.11;100.00;97568.69;5150415;27;20472;-62
2021/12/20 09:02:16;;;;;;;1.63;1.08;;;;;;;-2.16;100.00;97594.59;5148603;27;20051;-60
2021/12/20 09:04:42;;;;;;;0.98;0.98;;;;;;;-2.21;100.00;97589.41;5130766;27;20051;-62
2021/12/20 09:07:15;;;;;;;1.08;0.98;;;;;;;-2.21;100.00;97610.88;5130794;27;20047;-61
2021/12/20 09:09:45;;;;;;;2.05;0.95;;;;;;;-2.14;100.00;97653.34;5130565;27;20047;-62
2021/12/20 09:12:12;;;;;;;1.25;0.88;;;;;;;-2.06;100.00;97641.81;5130332;28;20519;-61
2021/12/20 09:14:38;;;;;;;1.30;1.00;;;;;;;-2.40;100.00;97579.03;5131321;27;20394;-62
2021/12/20 09:17:05;;;;;;;2.97;1.20;;;;;;;-2.55;100.00;97592.16;5130420;27;20055;-62
2021/12/20 09:19:34;;;;;;;1.35;1.10;;;;;;;-2.45;100.00;97643.59;5140316;27;20494;-61
2021/12/20 09:22:00;;;;;;;0.75;0.75;;;;;;;-2.31;100.00;97690.94;5142505;27;20055;-61
2021/12/20 09:24:27;;;;;;;1.55;1.20;;;;;;;-2.64;100.00;97617.06;5147996;27;20498;-61
2021/12/20 09:26:54;;;;;;;0.80;0.80;;;;;;;-2.61;100.00;97694.25;5151258;27;20487;-61
2021/12/20 09:29:20;;;;;;;2.03;1.20;;;;;;;-2.44;100.00;97722.19;5151213;27;20082;-60
2021/12/20 09:31:46;;;;;;;6.57;1.98;;;;;;;-2.28;100.00;97746.69;5151195;27;20047;-61
2021/12/20 09:34:13;;;;;;;2.20;1.05;;;;;;;-2.13;100.00;97748.91;5147583;27;20051;-61
2021/12/20 09:36:39;;;;;;;0.68;0.68;;;;;;;-2.35;100.00;97617.53;5130348;27;20066;-60
2021/12/20 09:39:10;;;;;;;1.20;0.85;;;;;;;-2.52;100.00;97537.84;5144929;27;20489;-62
2021/12/20 09:44:23;;;;;;;3.00;0.90;;;;;;;-2.41;100.00;97466.63;5151181;27;20092;-62
2021/12/20 09:46:50;;;;;;;1.33;1.05;;;;;;;-2.35;100.00;97468.03;5136305;27;20437;-62
2021/12/20 09:49:19;;;;;;;1.55;0.95;;;;;;;-2.22;100.00;97546.78;5130198;28;20428;-62
2021/12/20 09:51:45;;;;;;;1.55;1.13;;;;;;;-2.16;100.00;97599.19;5144474;27;20042;-60
2021/12/20 09:54:12;;;;;;;1.85;1.13;;;;;;;-2.18;100.00;97644.34;5150833;27;20057;-60
2021/12/20 09:56:39;;;;;;;1.25;1.00;;;;;;;-2.21;100.00;97653.03;5150921;27;20418;-60
2021/12/20 09:59:08;;;;;;;2.25;1.17;;;;;;;-2.21;100.00;97655.72;5138469;27;20137;-60
2021/12/20 10:01:36;;;;;;;1.30;1.20;;;;;;;-2.30;100.00;97668.38;5132090;27;20438;-61
2021/12/20 10:04:04;;;;;;;1.10;1.02;;;;;;;-2.31;100.00;97656.06;5150697;27;20527;-60
2021/12/20 10:06:30;;;;;;;1.38;1.20;;;;;;;-2.20;100.00;97684.16;5144573;27;20466;-60
2021/12/20 10:09:03;;;;;;;2.53;1.27;;;;;;;-2.26;100.00;97623.69;5150581;27;20133;-59
2021/12/20 10:11:31;;;;;;;4.80;1.10;;;;;;;-2.38;100.00;97619.75;5150946;27;20099;-59
2021/12/20 10:14:05;;;;;;;1.13;1.08;;;;;;;-2.33;100.00;97583.91;5150460;27;20051;-59
2021/12/20 10:16:31;;;;;;;1.30;1.00;;;;;;;-2.05;100.00;97616.53;5150155;27;20051;-59
2021/12/20 10:19:00;;;;;;;5.22;1.10;;;;;;;-2.17;100.00;97584.19;5154369;27;20058;-59
2021/12/20 10:21:34;;;;;;;1.40;1.10;;;;;;;-2.11;100.00;97585.59;5154222;27;20134;-59
2021/12/20 10:24:01;;;;;;;1.95;1.33;;;;;;;-1.92;100.00;97620.91;5153911;27;20053;-60
2021/12/20 10:26:27;;;;;;;0.70;0.70;;;;;;;-2.05;100.00;97560.16;5154138;27;20141;-60
2021/12/20 10:28:54;;;;;;;1.17;1.08;;;;;;;-2.21;100.00;97516.13;5154114;27;20053;-59
2021/12/20 10:31:22;;;;;;;0.82;0.82;;;;;;;-2.20;100.00;97523.88;5153860;27;20047;-59
2021/12/20 10:33:53;;;;;;;2.60;1.15;;;;;;;-2.25;100.00;97517.88;5153809;27;20050;-60
2021/12/20 10:36:20;;;;;;;1.35;0.90;;;;;;;-2.20;100.00;97541.84;5153962;27;20093;-59
2021/12/20 10:38:49;;;;;;;1.15;1.08;;;;;;;-2.32;100.00;97510.31;5153837;27;20056;-64
2021/12/20 10:41:18;;;;;;;2.25;0.93;;;;;;;-2.52;100.00;97482.28;5153781;27;20106;-59
2021/12/20 10:43:49;;;;;;;2.03;1.10;;;;;;;-2.37;100.00;97542.69;5153706;27;20098;-59
2021/12/20 10:46:19;;;;;;;1.25;1.15;;;;;;;-2.35;100.00;97561.19;5153602;27;20581;-59
2021/12/20 10:48:47;;;;;;;3.92;1.30;;;;;;;-2.24;100.00;97591.94;5153655;27;20050;-59
2021/12/20 10:51:23;;;;;;;2.63;1.35;;;;;;;-2.27;100.00;97589.88;5153442;27;20050;-59
2021/12/20 10:53:57;;;;;;;1.48;1.08;;;;;;;-2.40;100.00;97567.47;5153811;27;20043;-59
2021/12/20 10:56:24;;;;;;;1.30;1.10;;;;;;;-2.34;100.00;97571.59;5142587;27;20509;-59
2021/12/20 10:58:51;;;;;;;3.22;1.30;;;;;;;-2.10;100.00;97610.53;5151936;27;20050;-59
2021/12/20 11:04:16;;;;;;;1.20;1.10;;;;;;;-2.54;100.00;97503.28;5131359;27;20416;-59
2021/12/20 11:09:35;;;;;;;1.23;1.13;;;;;;;-2.55;100.00;97528.53;5132906;28;20459;-60
2021/12/20 11:12:04;;;;;;;0.90;0.90;;;;;;;-2.80;100.00;97497.16;5133089;28;20047;-60
2021/12/20 11:14:32;;;;;;;3.03;1.15;;;;;;;-2.84;100.00;97508.53;5132372;28;20047;-60
2021/12/20 11:17:00;;;;;;;1.17;1.08;;;;;;;-3.16;100.00;97514.41;5131972;28;20059;-63
2021/12/20 11:19:29;;;;;;;1.33;1.20;;;;;;;-3.00;100.00;97606.66;5131921;28;20160;-63
2021/12/20 11:21:59;;;;;;;1.77;1.20;;;;;;;-2.84;100.00;97658.72;5123708;28;20051;-63
2021/12/20 11:24:29;;;;;;;1.80;1.23;;;;;;;-2.81;100.00;97661.88;5127618;28;20433;-63
2021/12/20 11:26:57;;;;;;;1.25;1.05;;;;;;;-2.84;100.00;97676.69;5132375;28;20047;-61
2021/12/20 11:29:23;;;;;;;2.45;1.10;;;;;;;-2.86;100.00;97663.63;5132329;27;20051;-62
2021/12/20 11:31:51;;;;;;;1.25;0.90;;;;;;;-2.86;100.00;97679.72;5131758;28;20509;-62
2021/12/20 11:34:18;;;;;;;1.20;1.10;;;;;;;-2.78;100.00;97680.81;5141796;27;20134;-63
2021/12/20 11:36:45;;;;;;;1.40;0.90;;;;;;;-2.71;100.00;97697.22;5152743;27;20062;-62
2021/12/20 11:39:12;;;;;;;1.13;1.02;;;;;;;-2.79;100.00;97641.69;5152417;27;20062;-63
2021/12/20 11:41:40;;;;;;;1.25;0.90;;;;;;;-2.89;100.00;97633.97;5153503;27;20405;-64
2021/12/20 11:44:11;;;;;;;2.50;1.63;;;;;;;-2.80;100.00;97684.91;5153217;27;20205;-64
2021/12/20 11:46:51;;;;;;;1.10;1.00;;;;;;;-2.71;100.00;97723.28;5153013;27;20402;-64